Time;durP1;ratioP1;P1;durP2;ratioP2;P2;SDS_P1;SDS_P2;PMS_P1;PMS_P2;Temp;Humidity;BMP_temperature;BMP_pressure;BME280_temperature;BME280_humidity;BME280_pressure;Samples;Min_cycle;Max_cycle;Signal;HPM_P1;HPM_P2
2020/12/27 00:00:51;;;;;;;2.93;2.73;;;5.20;99.90;;;;;;4996316;28;20186;-69
2020/12/27 00:03:17;;;;;;;2.70;2.00;;;5.20;99.90;;;;;;4995900;28;20178;-69
2020/12/27 00:05:46;;;;;;;2.40;2.20;;;5.20;99.90;;;;;;4995816;28;20250;-69
2020/12/27 00:08:11;;;;;;;2.40;2.20;;;5.20;99.90;;;;;;4996410;28;20192;-69
2020/12/27 00:13:58;;;;;;;3.00;2.70;;;5.30;99.90;;;;;;4995635;28;20660;-69
2020/12/27 00:16:25;;;;;;;3.83;2.80;;;5.20;99.90;;;;;;4995990;28;20420;-69
2020/12/27 00:18:51;;;;;;;2.83;2.37;;;5.10;99.90;;;;;;4995718;28;20268;-69
2020/12/27 00:21:17;;;;;;;3.00;2.13;;;5.30;99.90;;;;;;4995894;28;20432;-69
2020/12/27 00:23:43;;;;;;;2.63;2.37;;;5.30;99.90;;;;;;4995788;28;20428;-69
2020/12/27 00:26:17;;;;;;;2.40;1.90;;;5.30;99.90;;;;;;4995833;28;20433;-69
2020/12/27 00:28:42;;;;;;;4.17;2.93;;;5.30;99.90;;;;;;4995831;28;20268;-67
2020/12/27 00:31:08;;;;;;;2.30;2.00;;;5.30;99.90;;;;;;4995431;28;20510;-70
2020/12/27 00:33:34;;;;;;;2.67;2.30;;;5.30;99.90;;;;;;4995752;28;20169;-70
2020/12/27 00:36:00;;;;;;;2.43;2.03;;;5.30;99.90;;;;;;4995917;28;20207;-70
2020/12/27 00:38:26;;;;;;;2.73;1.77;;;5.20;99.90;;;;;;4995622;28;20227;-70
2020/12/27 00:40:52;;;;;;;3.30;2.20;;;5.30;99.90;;;;;;4994680;28;20432;-70
2020/12/27 00:43:18;;;;;;;2.33;2.10;;;5.20;99.90;;;;;;4995482;28;20254;-70
2020/12/27 00:45:44;;;;;;;2.57;2.27;;;5.30;99.90;;;;;;4995384;28;20474;-68
2020/12/27 00:48:09;;;;;;;1.80;1.70;;;5.30;99.90;;;;;;4995078;28;20710;-69
2020/12/27 00:50:35;;;;;;;2.20;2.00;;;5.40;99.90;;;;;;4995381;28;20227;-69
2020/12/27 00:56:22;;;;;;;2.70;1.90;;;5.40;99.90;;;;;;4995010;28;20160;-67
2020/12/27 00:58:47;;;;;;;2.60;1.77;;;5.30;99.90;;;;;;4995304;28;20511;-69
2020/12/27 01:01:14;;;;;;;2.33;1.90;;;5.40;99.90;;;;;;4995318;28;20224;-67
2020/12/27 01:03:40;;;;;;;2.80;2.03;;;5.40;99.90;;;;;;4995211;28;20184;-67
2020/12/27 01:06:06;;;;;;;2.20;2.03;;;5.40;99.90;;;;;;4995166;28;20432;-67
2020/12/27 01:08:32;;;;;;;2.17;1.97;;;5.30;99.90;;;;;;4994533;28;20632;-67
2020/12/27 01:11:02;;;;;;;2.43;1.90;;;5.20;99.90;;;;;;4993887;28;20511;-67
2020/12/27 01:13:28;;;;;;;2.33;2.13;;;5.30;99.90;;;;;;4993851;28;20184;-67
2020/12/27 01:15:54;;;;;;;2.33;2.13;;;5.20;99.90;;;;;;4995050;28;20427;-70
2020/12/27 01:18:19;;;;;;;3.00;2.20;;;5.30;99.90;;;;;;4995011;28;20263;-70
2020/12/27 01:20:45;;;;;;;2.07;1.80;;;5.30;99.90;;;;;;4994902;28;20177;-67
2020/12/27 01:23:10;;;;;;;1.93;1.73;;;5.30;99.90;;;;;;4994954;28;20490;-70
2020/12/27 01:25:36;;;;;;;1.60;1.50;;;5.30;99.90;;;;;;4994860;28;20645;-67
2020/12/27 01:28:02;;;;;;;4.23;1.57;;;5.40;99.90;;;;;;4994861;28;20524;-67
2020/12/27 01:30:27;;;;;;;1.80;1.70;;;5.40;99.90;;;;;;4994813;28;20177;-70
2020/12/27 01:32:53;;;;;;;2.33;1.80;;;5.50;99.90;;;;;;4994836;28;20918;-67
2020/12/27 01:35:18;;;;;;;1.80;1.70;;;5.50;99.90;;;;;;4995273;28;20214;-68
2020/12/27 01:37:44;;;;;;;1.67;1.50;;;5.50;99.90;;;;;;4994463;28;20632;-67
2020/12/27 01:40:10;;;;;;;2.23;1.73;;;5.50;99.90;;;;;;4997613;28;20229;-69
2020/12/27 01:42:35;;;;;;;3.37;1.77;;;5.30;99.90;;;;;;4994722;28;20181;-69
2020/12/27 01:45:02;;;;;;;1.60;1.33;;;5.30;99.90;;;;;;4994310;28;20212;-67
2020/12/27 01:47:33;;;;;;;2.77;1.63;;;5.40;99.90;;;;;;4994357;28;20232;-67
2020/12/27 01:49:59;;;;;;;1.63;1.53;;;5.30;99.90;;;;;;4995171;28;20764;-67
2020/12/27 01:52:25;;;;;;;1.43;1.20;;;5.30;99.90;;;;;;4994328;28;20451;-66
2020/12/27 01:54:51;;;;;;;1.87;1.67;;;5.30;99.90;;;;;;4994493;28;20434;-67
2020/12/27 01:57:20;;;;;;;1.77;1.33;;;5.30;99.90;;;;;;4994467;28;20494;-67
2020/12/27 01:59:46;;;;;;;2.90;1.40;;;5.20;99.90;;;;;;4994464;28;20200;-67
2020/12/27 02:02:17;;;;;;;2.17;1.70;;;5.30;99.90;;;;;;4994433;28;20438;-66
2020/12/27 02:04:43;;;;;;;3.83;1.37;;;5.30;99.90;;;;;;4994365;28;20491;-66
2020/12/27 02:07:09;;;;;;;1.70;1.50;;;5.40;99.90;;;;;;4994351;28;20468;-65
2020/12/27 06:31:23;;;;;;;3.30;1.20;;;5.70;99.90;;;;;;5591611;23;20555;-67
2020/12/27 06:33:49;;;;;;;1.70;1.13;;;5.70;99.90;;;;;;4974180;28;20429;-67
2020/12/27 06:36:32;;;;;;;1.40;1.30;;;5.60;99.90;;;;;;4974171;28;20988;-68
2020/12/27 06:38:57;;;;;;;1.50;0.90;;;5.60;99.90;;;;;;4974281;28;20487;-68
2020/12/27 06:41:23;;;;;;;1.10;0.80;;;5.60;99.90;;;;;;4974162;28;20435;-68
2020/12/27 06:43:48;;;;;;;1.13;1.00;;;5.60;99.90;;;;;;4973971;28;20186;-68
2020/12/27 06:46:28;;;;;;;1.60;1.07;;;5.60;99.90;;;;;;4974209;28;20189;-69
2020/12/27 06:49:14;;;;;;;1.40;1.10;;;5.70;99.90;;;;;;4974141;28;20189;-69
2020/12/27 06:51:44;;;;;;;1.30;1.20;;;5.80;99.90;;;;;;4973885;28;20547;-69
2020/12/27 06:54:12;;;;;;;1.23;0.90;;;5.70;99.90;;;;;;4966809;28;20426;-67
2020/12/27 06:56:39;;;;;;;2.10;1.00;;;5.80;99.90;;;;;;4966995;28;20434;-69
2020/12/27 06:59:06;;;;;;;1.80;1.10;;;5.80;99.90;;;;;;4973225;28;20186;-70
2020/12/27 07:01:32;;;;;;;2.70;1.13;;;5.80;99.90;;;;;;4973306;28;20436;-71
2020/12/27 07:07:45;;;;;;;1.00;0.90;;;5.80;99.90;;;;;;4964258;28;20404;-70
2020/12/27 07:10:15;;;;;;;5.00;2.90;;;5.90;99.90;;;;;;4958541;28;20469;-69
2020/12/27 07:12:42;;;;;;;4.50;1.20;;;5.90;99.90;;;;;;4958338;28;20424;-71
2020/12/27 07:15:10;;;;;;;1.20;0.90;;;6.00;99.90;;;;;;4958464;28;20825;-69
2020/12/27 07:17:36;;;;;;;1.33;1.00;;;5.90;99.90;;;;;;4958175;29;20441;-71
2020/12/27 07:23:31;;;;;;;5.00;0.80;;;5.90;99.90;;;;;;4957976;29;20166;-65
2020/12/27 07:25:59;;;;;;;1.13;0.80;;;5.90;99.90;;;;;;4958242;28;20564;-74
2020/12/27 07:28:26;;;;;;;2.17;1.07;;;5.90;99.90;;;;;;4958125;28;20429;-72
2020/12/27 07:31:00;;;;;;;1.57;1.00;;;5.90;99.90;;;;;;4958059;28;20442;-67
2020/12/27 07:33:29;;;;;;;1.40;0.90;;;6.00;99.90;;;;;;4958165;28;20422;-65
2020/12/27 07:39:16;;;;;;;1.10;0.90;;;6.00;99.90;;;;;;4957818;29;20780;-62
2020/12/27 07:41:42;;;;;;;1.00;0.87;;;6.10;99.90;;;;;;4958005;29;20433;-63
2020/12/27 07:44:16;;;;;;;1.60;1.23;;;6.10;99.90;;;;;;4957910;29;20199;-63
2020/12/27 07:46:42;;;;;;;1.00;0.90;;;6.10;99.90;;;;;;4957647;28;20639;-63
2020/12/27 07:49:09;;;;;;;2.37;1.10;;;6.10;99.90;;;;;;4957547;28;20936;-65
2020/12/27 07:51:35;;;;;;;1.50;1.13;;;6.10;99.90;;;;;;4957790;28;20430;-64
2020/12/27 07:54:02;;;;;;;1.00;0.90;;;6.00;99.90;;;;;;4957768;28;20758;-63
2020/12/27 07:56:28;;;;;;;3.07;1.20;;;6.00;99.90;;;;;;4957738;28;20174;-63
2020/12/27 08:02:16;;;;;;;1.10;0.80;;;6.10;99.90;;;;;;4957186;28;20232;-63
2020/12/27 08:04:42;;;;;;;2.40;1.00;;;6.10;99.90;;;;;;4957549;29;20964;-64
2020/12/27 08:07:08;;;;;;;2.87;1.07;;;6.10;99.90;;;;;;4957569;28;20635;-64
2020/12/27 08:09:33;;;;;;;0.90;0.70;;;6.00;99.90;;;;;;4957481;29;20544;-64
2020/12/27 08:11:59;;;;;;;1.37;0.90;;;5.90;99.90;;;;;;4957495;29;20182;-64
2020/12/27 08:14:30;;;;;;;1.50;0.70;;;5.90;99.90;;;;;;4957362;29;20650;-70
2020/12/27 08:20:17;;;;;;;1.07;0.80;;;5.90;99.90;;;;;;4957333;29;20165;-65
2020/12/27 08:22:42;;;;;;;1.13;0.70;;;6.00;99.90;;;;;;4957223;29;20445;-65
2020/12/27 08:25:12;;;;;;;0.90;0.70;;;6.10;99.90;;;;;;4956932;29;20347;-63
2020/12/27 08:27:37;;;;;;;0.80;0.60;;;6.20;99.90;;;;;;4956800;28;20171;-63
2020/12/27 08:30:04;;;;;;;1.13;0.83;;;6.10;99.90;;;;;;4957118;29;20445;-63
2020/12/27 08:32:30;;;;;;;0.97;0.73;;;6.10;99.90;;;;;;4955519;29;20641;-64
2020/12/27 08:34:56;;;;;;;1.60;1.00;;;6.00;99.90;;;;;;4957036;29;20445;-64
2020/12/27 08:40:46;;;;;;;1.10;0.70;;;6.00;99.90;;;;;;4956687;29;20205;-66
2020/12/27 08:46:38;;;;;;;0.90;0.70;;;6.10;99.90;;;;;;4956576;29;20442;-61
2020/12/27 08:49:23;;;;;;;1.00;0.70;;;6.10;99.90;;;;;;4956767;28;20468;-61
2020/12/27 08:51:52;;;;;;;1.40;0.90;;;6.20;99.90;;;;;;4956076;29;20437;-62
2020/12/27 08:57:42;;;;;;;1.13;0.80;;;6.20;99.90;;;;;;4956279;29;20440;-70
2020/12/27 09:03:41;;;;;;;1.30;0.80;;;6.20;99.90;;;;;;4953090;29;20999;-71
2020/12/27 09:06:13;;;;;;;2.07;0.83;;;6.30;99.90;;;;;;4956728;28;20469;-70
2020/12/27 09:12:09;;;;;;;1.03;0.70;;;6.30;99.90;;;;;;4956193;29;20449;-69
2020/12/27 09:14:36;;;;;;;1.30;1.10;;;6.30;99.90;;;;;;4956443;28;20428;-70
2020/12/27 09:17:06;;;;;;;0.90;0.60;;;6.30;99.90;;;;;;4956409;28;20800;-69
2020/12/27 09:19:35;;;;;;;1.33;1.03;;;6.30;99.90;;;;;;4956061;28;20543;-69
2020/12/27 09:22:05;;;;;;;1.40;0.90;;;6.30;99.90;;;;;;4956035;28;20430;-69
2020/12/27 09:24:32;;;;;;;1.93;1.00;;;6.30;99.90;;;;;;4956198;28;20461;-69
2020/12/27 09:27:09;;;;;;;1.97;1.07;;;6.30;99.90;;;;;;4956267;28;20849;-69
2020/12/27 09:29:35;;;;;;;2.60;1.30;;;6.40;99.90;;;;;;4955900;28;20834;-77
2020/12/27 09:32:11;;;;;;;0.80;0.70;;;6.20;99.90;;;;;;4955780;28;20433;-69
2020/12/27 09:38:24;;;;;;;0.87;0.63;;;6.30;99.90;;;;;;4956032;29;20411;-81
2020/12/27 09:41:09;;;;;;;1.10;0.77;;;6.30;99.90;;;;;;4955939;28;20865;-69
2020/12/27 09:43:53;;;;;;;1.20;0.87;;;6.30;99.90;;;;;;4955809;28;20411;-69
2020/12/27 09:46:37;;;;;;;0.87;0.67;;;6.50;99.90;;;;;;4955336;28;20424;-70
2020/12/27 09:49:20;;;;;;;0.90;0.80;;;6.50;99.90;;;;;;4955415;29;20488;-69
2020/12/27 09:51:59;;;;;;;1.10;0.70;;;6.50;99.90;;;;;;4953948;29;20417;-69
2020/12/27 09:54:25;;;;;;;1.43;0.90;;;6.40;99.90;;;;;;4955390;28;20505;-69
2020/12/27 09:56:50;;;;;;;1.10;0.90;;;6.40;99.90;;;;;;4955525;29;20556;-70
2020/12/27 09:59:16;;;;;;;1.20;0.70;;;6.40;99.90;;;;;;4955365;29;20537;-70
2020/12/27 10:01:41;;;;;;;1.50;0.93;;;6.30;99.90;;;;;;4955156;29;20174;-70
2020/12/27 10:04:07;;;;;;;2.40;1.33;;;6.40;99.90;;;;;;4954790;29;20238;-70
2020/12/27 10:06:32;;;;;;;1.10;0.90;;;6.40;99.90;;;;;;4955555;29;20541;-70
2020/12/27 10:08:58;;;;;;;0.90;0.70;;;6.40;99.90;;;;;;4955595;29;20166;-70
2020/12/27 10:11:23;;;;;;;1.00;0.80;;;6.40;99.90;;;;;;4955558;29;20588;-69
2020/12/27 10:13:49;;;;;;;0.90;0.70;;;6.40;99.90;;;;;;4954865;29;20173;-69
2020/12/27 10:16:15;;;;;;;0.83;0.60;;;6.50;99.90;;;;;;4954665;29;20280;-68
2020/12/27 10:18:40;;;;;;;1.00;0.77;;;6.50;99.90;;;;;;4954997;29;20177;-68
2020/12/27 10:21:09;;;;;;;1.73;0.70;;;6.50;99.90;;;;;;4955463;29;20177;-68
2020/12/27 10:23:35;;;;;;;1.57;1.07;;;6.60;99.90;;;;;;4955279;29;20184;-70
2020/12/27 10:26:01;;;;;;;1.97;0.93;;;6.50;99.90;;;;;;4955263;28;20485;-69
2020/12/27 10:28:28;;;;;;;1.13;0.80;;;6.60;99.90;;;;;;4955248;28;20465;-68
2020/12/27 10:30:53;;;;;;;1.03;0.83;;;6.60;99.90;;;;;;4953608;29;20434;-68
2020/12/27 10:33:19;;;;;;;1.10;0.80;;;6.60;99.90;;;;;;4955254;29;20425;-68
2020/12/27 10:35:44;;;;;;;1.27;0.80;;;6.60;99.90;;;;;;4955198;29;20268;-68
2020/12/27 10:38:10;;;;;;;0.93;0.77;;;6.70;99.90;;;;;;4955328;29;20568;-71
2020/12/27 10:43:57;;;;;;;1.30;0.90;;;6.70;99.90;;;;;;4958475;29;20269;-70
2020/12/27 10:46:23;;;;;;;1.67;1.17;;;6.70;99.90;;;;;;4958513;29;20949;-70
2020/12/27 10:48:49;;;;;;;1.23;0.90;;;6.60;99.90;;;;;;4958664;28;20188;-70
2020/12/27 10:51:15;;;;;;;1.00;0.70;;;6.60;99.90;;;;;;4958737;28;20183;-71
2020/12/27 10:53:40;;;;;;;2.03;0.93;;;6.70;99.90;;;;;;4958492;29;20980;-69
2020/12/27 10:56:07;;;;;;;1.53;0.97;;;6.60;99.90;;;;;;4958431;29;20202;-68
2020/12/27 10:58:32;;;;;;;0.90;0.70;;;6.60;99.90;;;;;;4958401;28;20213;-68
2020/12/27 11:04:20;;;;;;;1.43;1.33;;;6.70;99.90;;;;;;4949836;29;20375;-69
2020/12/27 11:06:46;;;;;;;1.87;1.03;;;6.70;99.90;;;;;;4958640;28;20944;-69
2020/12/27 11:09:11;;;;;;;2.73;0.90;;;6.70;99.90;;;;;;4958560;29;20178;-68
2020/12/27 11:14:59;;;;;;;1.00;0.80;;;6.60;99.90;;;;;;4958216;29;20649;-69
2020/12/27 11:17:25;;;;;;;0.93;0.77;;;6.70;99.90;;;;;;4958368;29;20436;-68
2020/12/27 11:19:50;;;;;;;1.00;0.90;;;6.60;99.90;;;;;;4958455;28;20182;-68
2020/12/27 11:22:16;;;;;;;1.40;1.17;;;6.60;99.90;;;;;;4958365;29;20452;-70
2020/12/27 11:24:42;;;;;;;1.97;1.00;;;6.60;99.90;;;;;;4958238;29;20641;-68
2020/12/27 11:30:29;;;;;;;3.23;1.07;;;6.40;99.90;;;;;;4957955;29;20190;-69
2020/12/27 11:32:54;;;;;;;1.90;1.17;;;6.30;99.90;;;;;;4958103;29;20436;-71
2020/12/27 11:38:42;;;;;;;1.03;0.83;;;6.20;99.90;;;;;;4957920;29;20177;-69
2020/12/27 11:41:11;;;;;;;2.03;1.20;;;6.00;99.90;;;;;;4958005;28;20433;-70
2020/12/27 11:43:37;;;;;;;0.97;0.80;;;6.10;99.90;;;;;;4958006;28;20515;-69
2020/12/27 11:46:02;;;;;;;1.77;1.10;;;6.20;99.90;;;;;;4956369;29;20924;-70
2020/12/27 11:48:28;;;;;;;1.83;1.00;;;6.10;99.90;;;;;;4957749;29;20175;-68
2020/12/27 11:54:15;;;;;;;1.50;1.20;;;6.00;99.90;;;;;;4957419;29;20205;-69
2020/12/27 12:00:06;;;;;;;5.00;1.50;;;6.20;99.90;;;;;;4957268;29;20694;-69
2020/12/27 12:02:32;;;;;;;1.13;1.03;;;6.20;99.90;;;;;;4957521;29;20414;-74
2020/12/27 12:08:19;;;;;;;1.23;1.13;;;6.30;99.90;;;;;;4957223;29;20544;-73
2020/12/27 12:14:08;;;;;;;1.00;0.67;;;6.30;99.90;;;;;;4956957;29;20665;-69
2020/12/27 12:16:34;;;;;;;1.50;1.10;;;6.40;99.90;;;;;;4956982;28;20440;-70
2020/12/27 12:22:21;;;;;;;1.80;1.13;;;6.40;99.90;;;;;;4956991;29;20931;-71
2020/12/27 12:24:47;;;;;;;1.10;1.00;;;6.40;99.90;;;;;;4956884;29;20473;-71
2020/12/27 12:27:13;;;;;;;3.50;1.60;;;6.50;99.90;;;;;;4956880;29;20193;-70
2020/12/27 12:29:38;;;;;;;1.30;1.10;;;6.50;99.90;;;;;;4957102;29;20182;-71
2020/12/27 12:35:26;;;;;;;6.30;2.50;;;6.40;99.90;;;;;;4956946;29;20168;-71
2020/12/27 12:37:51;;;;;;;7.60;1.27;;;6.50;99.90;;;;;;4957013;29;20438;-69
2020/12/27 12:40:17;;;;;;;1.73;1.20;;;6.50;99.90;;;;;;4957062;29;20182;-69
2020/12/27 12:42:42;;;;;;;3.10;1.67;;;6.40;99.90;;;;;;4956721;29;20183;-71
2020/12/27 12:45:08;;;;;;;1.20;0.90;;;6.50;99.90;;;;;;4955422;29;20210;-71
2020/12/27 12:47:35;;;;;;;1.00;0.90;;;6.40;99.90;;;;;;4956955;28;20174;-71
2020/12/27 12:50:00;;;;;;;2.03;1.17;;;6.50;99.90;;;;;;4956675;28;20457;-71
2020/12/27 12:52:26;;;;;;;1.33;1.23;;;6.50;99.90;;;;;;4956543;28;20422;-73
2020/12/27 12:54:51;;;;;;;1.30;1.13;;;6.50;99.90;;;;;;4956730;29;20261;-69
2020/12/27 12:57:17;;;;;;;1.83;1.13;;;6.50;99.90;;;;;;4956434;29;20188;-70
2020/12/27 12:59:43;;;;;;;1.33;1.17;;;6.40;99.90;;;;;;4956654;29;20178;-70
2020/12/27 13:02:08;;;;;;;1.27;1.00;;;6.50;99.90;;;;;;4956719;29;20182;-70
2020/12/27 13:04:34;;;;;;;1.37;1.20;;;6.40;99.90;;;;;;4955674;28;20258;-70
2020/12/27 13:06:59;;;;;;;1.00;0.80;;;6.30;99.90;;;;;;4956252;29;20519;-70
2020/12/27 13:09:24;;;;;;;2.30;1.20;;;6.30;99.90;;;;;;4956271;29;20173;-70
2020/12/27 13:11:50;;;;;;;1.70;1.17;;;6.30;99.90;;;;;;4956475;29;20193;-70
2020/12/27 13:14:15;;;;;;;2.70;1.50;;;6.20;99.90;;;;;;4956093;29;20545;-70
2020/12/27 13:16:47;;;;;;;1.50;1.00;;;6.20;99.90;;;;;;4956633;29;20191;-70
2020/12/27 13:22:35;;;;;;;1.93;1.33;;;6.10;99.90;;;;;;4956086;29;20456;-70
2020/12/27 13:28:22;;;;;;;2.23;1.27;;;5.90;99.90;;;;;;4955982;29;20173;-69
2020/12/27 13:34:10;;;;;;;2.00;1.30;;;5.80;99.90;;;;;;4955932;29;20254;-70
2020/12/27 13:36:35;;;;;;;1.10;1.00;;;5.80;99.90;;;;;;4955805;28;20476;-70
2020/12/27 13:39:01;;;;;;;2.13;1.20;;;5.80;99.90;;;;;;4955842;29;20178;-71
2020/12/27 13:44:49;;;;;;;1.10;1.00;;;5.80;99.90;;;;;;4955554;29;20229;-70
2020/12/27 13:47:16;;;;;;;1.40;1.20;;;5.70;99.90;;;;;;4955849;28;20429;-70
2020/12/27 13:49:42;;;;;;;5.20;1.10;;;5.60;99.90;;;;;;4955701;28;20436;-70
2020/12/27 13:52:07;;;;;;;1.77;1.17;;;5.60;99.90;;;;;;4955720;29;20524;-70
2020/12/27 13:57:55;;;;;;;1.83;1.43;;;5.60;99.90;;;;;;4955485;29;20170;-70
2020/12/27 14:03:43;;;;;;;4.60;1.33;;;5.50;99.90;;;;;;4955248;28;20245;-71
2020/12/27 14:06:08;;;;;;;1.00;0.90;;;5.50;99.90;;;;;;4955525;28;20955;-71
2020/12/27 14:08:34;;;;;;;1.53;1.23;;;5.50;99.90;;;;;;4955497;29;20652;-72
2020/12/27 14:10:59;;;;;;;2.10;1.20;;;5.50;99.90;;;;;;4955206;29;20634;-72
2020/12/27 14:13:25;;;;;;;1.20;0.97;;;5.20;99.90;;;;;;4955321;29;20174;-71
2020/12/27 14:15:50;;;;;;;1.73;1.30;;;5.30;99.90;;;;;;4956443;28;20171;-72
2020/12/27 14:18:16;;;;;;;2.43;1.07;;;5.30;99.90;;;;;;4959474;29;20268;-73
2020/12/27 14:20:41;;;;;;;2.13;1.30;;;5.30;99.90;;;;;;4959454;29;20263;-72
2020/12/27 14:23:07;;;;;;;2.80;1.30;;;5.20;99.90;;;;;;4959448;29;20184;-72
2020/12/27 14:25:32;;;;;;;1.37;1.20;;;5.20;99.90;;;;;;4958925;29;20216;-72
2020/12/27 14:27:58;;;;;;;0.97;0.80;;;5.20;99.90;;;;;;4959313;29;20180;-73
2020/12/27 14:33:45;;;;;;;1.00;0.90;;;5.10;99.90;;;;;;4959015;29;20208;-72
2020/12/27 14:36:12;;;;;;;1.20;0.80;;;5.00;99.90;;;;;;4958860;29;20432;-72
2020/12/27 14:38:38;;;;;;;2.70;1.53;;;5.10;99.90;;;;;;4959196;28;20543;-70
2020/12/27 14:41:05;;;;;;;3.97;2.20;;;5.10;99.90;;;;;;4959032;28;21009;-70
2020/12/27 14:46:52;;;;;;;1.50;1.10;;;5.10;99.90;;;;;;4958814;29;20811;-70
2020/12/27 14:49:17;;;;;;;2.30;1.33;;;5.00;99.90;;;;;;4958854;29;20440;-70
2020/12/27 14:55:05;;;;;;;1.00;0.90;;;5.00;99.90;;;;;;4958551;29;20243;-70
2020/12/27 14:57:31;;;;;;;1.00;0.80;;;5.00;99.90;;;;;;4958735;29;20436;-69
2020/12/27 14:59:56;;;;;;;1.10;0.83;;;5.00;99.90;;;;;;4958652;29;20193;-72
2020/12/27 15:02:22;;;;;;;1.63;0.93;;;5.10;99.90;;;;;;4959135;29;20426;-72
2020/12/27 15:04:47;;;;;;;1.37;1.00;;;5.00;99.90;;;;;;4958070;29;20255;-70
2020/12/27 15:07:13;;;;;;;1.07;0.90;;;5.10;99.90;;;;;;4958352;29;20185;-72
2020/12/27 15:13:00;;;;;;;1.67;0.83;;;5.20;99.90;;;;;;4958328;29;20169;-72
2020/12/27 15:15:26;;;;;;;1.47;0.90;;;5.10;99.90;;;;;;4958243;29;20436;-73
2020/12/27 15:17:52;;;;;;;1.10;0.93;;;5.20;99.90;;;;;;4956963;29;20086;-70
2020/12/27 15:23:39;;;;;;;1.20;1.03;;;5.10;99.90;;;;;;4958175;29;20603;-71
2020/12/27 15:29:27;;;;;;;2.47;1.03;;;5.10;99.90;;;;;;4958032;29;20231;-70
2020/12/27 15:31:52;;;;;;;1.20;0.90;;;5.00;99.90;;;;;;4958003;29;20520;-70
2020/12/27 15:34:18;;;;;;;1.00;0.87;;;5.10;99.90;;;;;;4958294;29;20573;-70
2020/12/27 15:36:47;;;;;;;0.90;0.70;;;5.10;99.90;;;;;;4957946;29;20197;-70
2020/12/27 15:39:13;;;;;;;0.90;0.77;;;5.00;99.90;;;;;;4957917;29;20716;-72
2020/12/27 15:41:39;;;;;;;1.37;1.10;;;5.00;99.90;;;;;;4958128;29;20427;-71
2020/12/27 15:44:05;;;;;;;1.30;0.80;;;4.90;99.90;;;;;;4957949;28;20959;-71
2020/12/27 15:46:30;;;;;;;1.63;0.93;;;5.00;99.90;;;;;;4957707;29;20452;-71
2020/12/27 15:48:56;;;;;;;1.30;0.90;;;5.10;99.90;;;;;;4958054;29;20222;-71
2020/12/27 15:51:22;;;;;;;1.27;1.00;;;5.20;99.90;;;;;;4958013;29;20184;-71
2020/12/27 15:53:48;;;;;;;1.30;0.80;;;5.10;99.90;;;;;;4957959;28;20426;-71
2020/12/27 15:56:25;;;;;;;1.03;0.60;;;5.10;99.90;;;;;;4957922;28;20191;-71
2020/12/27 15:58:51;;;;;;;0.90;0.70;;;5.10;99.90;;;;;;4957583;29;20814;-70
2020/12/27 16:01:17;;;;;;;3.00;0.73;;;5.10;99.90;;;;;;4957504;28;20442;-70
2020/12/27 16:03:43;;;;;;;1.10;0.80;;;5.00;99.90;;;;;;4956065;29;20539;-70
2020/12/27 16:06:09;;;;;;;1.10;0.93;;;5.00;99.90;;;;;;4957738;28;20210;-70
2020/12/27 16:08:35;;;;;;;1.37;1.27;;;5.00;99.90;;;;;;4957310;28;20455;-70
2020/12/27 16:11:01;;;;;;;1.17;0.90;;;4.90;99.90;;;;;;4957602;28;20445;-70
2020/12/27 16:13:31;;;;;;;1.77;1.13;;;5.00;99.90;;;;;;4957566;28;20436;-70
2020/12/27 16:15:57;;;;;;;1.23;0.97;;;5.00;99.90;;;;;;4956353;29;20186;-71
2020/12/27 16:18:29;;;;;;;1.73;1.03;;;5.00;99.90;;;;;;4957184;28;21004;-70
2020/12/27 16:20:54;;;;;;;1.67;1.20;;;4.90;99.90;;;;;;4957211;28;20439;-71
2020/12/27 16:23:20;;;;;;;2.20;1.73;;;5.00;99.90;;;;;;4957427;28;20525;-71
2020/12/27 16:25:46;;;;;;;1.00;0.90;;;5.00;99.90;;;;;;4957319;28;20569;-70
2020/12/27 16:28:11;;;;;;;4.90;1.10;;;5.00;99.90;;;;;;4957328;29;20265;-70
2020/12/27 16:30:37;;;;;;;1.03;0.93;;;5.10;99.90;;;;;;4957323;28;20186;-71
2020/12/27 16:33:03;;;;;;;1.30;1.00;;;5.00;99.90;;;;;;4957196;29;20214;-71
2020/12/27 16:35:28;;;;;;;1.73;0.90;;;4.90;99.90;;;;;;4957208;29;20189;-70
2020/12/27 16:37:54;;;;;;;1.47;0.93;;;4.90;99.90;;;;;;4956809;28;20185;-71
2020/12/27 16:40:20;;;;;;;1.10;0.97;;;4.90;99.90;;;;;;4956663;29;20174;-71
2020/12/27 16:42:45;;;;;;;1.10;0.80;;;4.90;99.90;;;;;;4957047;29;20183;-71
2020/12/27 16:45:11;;;;;;;2.33;0.90;;;5.00;99.90;;;;;;4956913;29;20220;-71
2020/12/27 16:47:37;;;;;;;1.00;0.90;;;5.00;99.90;;;;;;4956973;29;20186;-71
2020/12/27 16:50:04;;;;;;;0.93;0.80;;;4.90;99.90;;;;;;4956954;28;20188;-70
2020/12/27 16:52:29;;;;;;;1.00;0.80;;;4.90;99.90;;;;;;4956881;28;20439;-70
2020/12/27 16:54:55;;;;;;;1.10;0.70;;;5.00;99.90;;;;;;4956553;29;20860;-71
2020/12/27 16:57:21;;;;;;;1.00;0.80;;;4.90;99.90;;;;;;4956486;28;20181;-71
2020/12/27 16:59:46;;;;;;;0.80;0.63;;;5.00;99.90;;;;;;4955634;29;20217;-71
2020/12/27 17:02:12;;;;;;;1.40;0.80;;;5.00;99.90;;;;;;4956611;29;20210;-71
2020/12/27 17:04:37;;;;;;;1.03;0.80;;;4.90;99.90;;;;;;4956234;29;20324;-71
2020/12/27 17:07:03;;;;;;;1.60;0.90;;;4.80;99.90;;;;;;4956595;29;20719;-71
2020/12/27 17:09:28;;;;;;;0.90;0.70;;;4.80;99.90;;;;;;4956248;29;20533;-71
2020/12/27 17:12:01;;;;;;;0.90;0.70;;;4.80;99.90;;;;;;4956250;29;20217;-72
2020/12/27 17:14:27;;;;;;;0.90;0.80;;;4.90;99.90;;;;;;4956474;28;20543;-71
2020/12/27 17:16:53;;;;;;;1.07;0.90;;;5.00;99.90;;;;;;4956458;28;20472;-71
2020/12/27 17:19:19;;;;;;;1.20;0.80;;;5.00;99.90;;;;;;4956403;29;20481;-71
2020/12/27 17:21:44;;;;;;;1.90;0.80;;;5.00;99.90;;;;;;4956352;29;20936;-71
2020/12/27 17:24:10;;;;;;;1.27;0.80;;;5.00;99.90;;;;;;4956224;29;20279;-71
2020/12/27 17:26:37;;;;;;;1.43;1.00;;;5.00;99.90;;;;;;4956239;28;20299;-71
2020/12/27 17:29:04;;;;;;;1.40;0.73;;;5.10;99.90;;;;;;4954735;29;20933;-71
2020/12/27 17:31:30;;;;;;;1.00;0.80;;;4.80;99.90;;;;;;4956000;28;20481;-71
2020/12/27 17:33:55;;;;;;;1.30;0.70;;;4.90;99.90;;;;;;4956510;29;20437;-71
2020/12/27 17:36:25;;;;;;;1.83;1.00;;;4.90;99.90;;;;;;4955832;29;20527;-71
2020/12/27 17:38:51;;;;;;;1.43;0.90;;;5.00;99.90;;;;;;4955970;28;20164;-71
2020/12/27 17:41:23;;;;;;;1.10;0.83;;;5.00;99.90;;;;;;4956050;29;20863;-71
2020/12/27 17:47:11;;;;;;;1.87;0.80;;;5.10;99.90;;;;;;4955674;29;20428;-71
2020/12/27 17:49:36;;;;;;;0.93;0.70;;;5.10;99.90;;;;;;4955685;28;20789;-71
2020/12/27 17:52:02;;;;;;;0.80;0.60;;;5.10;99.90;;;;;;4956092;29;20188;-72
2020/12/27 17:54:27;;;;;;;1.00;0.70;;;5.00;99.90;;;;;;4955713;29;20180;-71
2020/12/27 17:56:53;;;;;;;1.37;0.80;;;5.00;99.90;;;;;;4955458;29;20225;-72
2020/12/27 18:02:40;;;;;;;0.93;0.70;;;4.90;99.90;;;;;;4955419;29;20235;-71
2020/12/27 18:08:41;;;;;;;1.03;0.80;;;5.00;99.90;;;;;;4955408;29;20649;-71
2020/12/27 18:11:06;;;;;;;2.00;1.10;;;5.00;99.90;;;;;;4955563;29;20422;-71
2020/12/27 18:13:32;;;;;;;5.23;2.37;;;4.90;99.90;;;;;;4955552;29;20634;-70
2020/12/27 18:19:19;;;;;;;1.27;1.07;;;5.10;99.90;;;;;;4955267;29;20314;-70
2020/12/27 18:21:46;;;;;;;1.03;0.93;;;5.10;99.90;;;;;;4955390;28;20533;-72
2020/12/27 18:24:12;;;;;;;5.63;1.00;;;5.10;99.90;;;;;;4955470;29;20640;-70
2020/12/27 18:30:00;;;;;;;1.10;0.80;;;5.10;99.90;;;;;;4955211;29;20928;-69
2020/12/27 18:32:28;;;;;;;1.13;0.80;;;5.10;99.90;;;;;;4955257;28;20433;-72
2020/12/27 18:38:15;;;;;;;1.10;0.93;;;5.00;99.90;;;;;;4954983;29;20505;-71
2020/12/27 18:40:40;;;;;;;1.13;0.80;;;5.20;99.90;;;;;;4955249;29;20453;-71
2020/12/27 18:46:28;;;;;;;1.10;0.80;;;5.30;99.90;;;;;;4954954;29;20210;-71
2020/12/27 18:48:54;;;;;;;1.20;0.90;;;5.30;99.90;;;;;;4955242;29;20425;-72
2020/12/27 18:51:20;;;;;;;1.00;0.70;;;5.20;99.90;;;;;;4955234;29;20188;-71
2020/12/27 18:57:08;;;;;;;1.43;0.97;;;5.20;99.90;;;;;;4954931;29;20420;-72
2020/12/27 19:02:56;;;;;;;1.93;0.90;;;5.20;99.90;;;;;;4957345;28;20524;-71
2020/12/27 19:05:22;;;;;;;1.40;0.90;;;5.10;99.90;;;;;;4958189;29;20578;-71
2020/12/27 19:07:47;;;;;;;2.23;0.90;;;5.20;99.90;;;;;;4957129;29;20185;-72
2020/12/27 19:10:13;;;;;;;0.93;0.83;;;5.30;99.90;;;;;;4958363;29;20260;-71
2020/12/27 19:12:38;;;;;;;1.27;0.70;;;5.20;99.90;;;;;;4958561;29;20177;-71
2020/12/27 19:18:26;;;;;;;1.10;0.80;;;5.20;99.90;;;;;;4958267;29;20177;-70
2020/12/27 19:24:13;;;;;;;0.80;0.60;;;5.30;99.90;;;;;;4958084;29;20172;-70
2020/12/27 19:30:01;;;;;;;0.83;0.60;;;5.30;99.90;;;;;;4958072;29;20229;-72
2020/12/27 19:35:48;;;;;;;1.50;0.70;;;5.30;99.90;;;;;;4958008;29;20192;-73
2020/12/27 19:41:35;;;;;;;0.90;0.70;;;5.20;99.90;;;;;;4957903;29;20162;-70
2020/12/27 19:47:23;;;;;;;1.40;0.90;;;5.20;99.90;;;;;;4957692;29;20176;-71
2020/12/27 19:53:10;;;;;;;0.90;0.67;;;5.20;99.90;;;;;;4957704;29;20274;-71
2020/12/27 19:55:36;;;;;;;1.17;0.90;;;5.10;99.90;;;;;;4957810;29;20470;-71
2020/12/27 20:01:23;;;;;;;1.00;0.80;;;5.10;99.90;;;;;;4957576;29;20173;-72
2020/12/27 20:03:49;;;;;;;1.30;1.07;;;5.10;99.90;;;;;;4957463;28;20459;-73
2020/12/27 20:06:17;;;;;;;1.80;1.20;;;5.20;99.90;;;;;;4957591;29;20540;-73
2020/12/27 20:08:43;;;;;;;1.20;1.00;;;5.30;99.90;;;;;;4957595;28;20181;-73
2020/12/27 20:11:08;;;;;;;1.33;1.03;;;5.20;99.90;;;;;;4957614;28;20452;-75
2020/12/27 20:16:56;;;;;;;1.20;1.03;;;5.30;99.90;;;;;;4957224;29;20168;-71
2020/12/27 20:19:22;;;;;;;0.90;0.77;;;5.30;99.90;;;;;;4957424;29;20513;-71